createdAt,value
2022-12-06T00:01:56.474Z,99630.67
2022-12-06T00:12:21.987Z,99613.03
2022-12-06T00:22:48.335Z,99602.41
2022-12-06T00:32:57.607Z,99599.95
2022-12-06T00:43:13.231Z,99595.59
2022-12-06T00:53:38.766Z,99580.63
2022-12-06T01:04:06.887Z,99586.07
2022-12-06T01:14:32.320Z,99576.55
2022-12-06T01:24:57.911Z,99573.23
2022-12-06T01:35:22.208Z,99565.91
2022-12-06T01:45:47.691Z,99566.58
2022-12-06T01:56:13.927Z,99545.27
2022-12-06T02:06:40.653Z,99531.26
2022-12-06T02:17:18.382Z,99517.34
2022-12-06T02:28:05.769Z,99512.44
2022-12-06T02:38:37.296Z,99504.75
2022-12-06T02:49:06.063Z,99496.55
2022-12-06T02:59:31.501Z,99488.89
2022-12-06T03:10:10.832Z,99488.83
2022-12-06T03:20:43.016Z,99481.21
2022-12-06T03:31:15.271Z,99465.38
2022-12-06T03:41:54.122Z,99460.91
2022-12-06T03:52:19.819Z,99439.98
2022-12-06T04:02:45.454Z,99430.01
2022-12-06T04:13:15.442Z,99416.63
2022-12-06T04:23:47.364Z,99407.73
2022-12-06T04:34:31.087Z,99395.80
2022-12-06T04:44:56.719Z,99395.74
2022-12-06T04:55:22.293Z,99394.12
2022-12-06T05:05:48.160Z,99385.77
2022-12-06T05:16:14.431Z,99387.41
2022-12-06T05:26:39.883Z,99386.35
2022-12-06T05:37:06.220Z,99358.09
2022-12-06T05:47:31.705Z,99337.00
2022-12-06T05:57:57.371Z,99349.09
2022-12-06T06:08:22.892Z,99338.90
2022-12-06T06:18:48.449Z,99334.88
2022-12-06T06:29:14.354Z,99332.71
2022-12-06T06:39:39.859Z,99322.04
2022-12-06T06:50:05.830Z,99318.19
2022-12-06T07:00:31.497Z,99316.30
2022-12-06T07:10:57.135Z,99316.48
2022-12-06T07:21:23.401Z,99316.03
2022-12-06T07:31:48.836Z,99316.23
2022-12-06T07:42:31.748Z,99310.41
2022-12-06T07:52:57.170Z,99298.30
2022-12-06T08:03:22.689Z,99294.48
2022-12-06T08:13:48.139Z,99301.88
2022-12-06T08:24:13.673Z,99311.67
2022-12-06T08:34:39.149Z,99320.98
2022-12-06T08:45:04.892Z,99313.77
2022-12-06T08:55:30.455Z,99303.36
2022-12-06T09:05:56.021Z,99289.44
2022-12-06T09:16:24.464Z,99280.42
2022-12-06T09:26:50.529Z,99273.45
2022-12-06T09:37:16.533Z,99260.15
2022-12-06T09:47:57.648Z,99246.86
2022-12-06T09:58:34.776Z,99225.48
2022-12-06T10:09:13.209Z,99205.34
2022-12-06T10:19:51.488Z,99196.80
2022-12-06T10:30:18.385Z,99180.48
2022-12-06T10:40:52.504Z,99164.71
2022-12-06T10:51:23.259Z,99151.23
2022-12-06T11:01:50.360Z,99146.83
2022-12-06T11:12:30.771Z,99137.52
2022-12-06T11:23:07.215Z,99125.95
2022-12-06T11:33:35.127Z,99117.61
2022-12-06T11:44:01.111Z,99107.95
2022-12-06T11:54:30.768Z,99108.64
2022-12-06T12:04:40.874Z,99103.91
2022-12-06T12:14:52.075Z,99089.40
2022-12-06T12:25:18.513Z,99080.27
2022-12-06T12:35:29.118Z,99073.91
2022-12-06T12:45:35.148Z,99060.09
2022-12-06T12:55:41.932Z,99046.92
2022-12-06T13:05:50.962Z,99042.27
2022-12-06T13:15:59.571Z,99034.09
2022-12-06T13:26:17.783Z,99025.73
2022-12-06T13:36:24.995Z,99021.48
2022-12-06T13:46:34.748Z,99018.34
2022-12-06T13:56:41.965Z,99018.19
2022-12-06T14:06:48.668Z,99018.63
2022-12-06T14:16:57.280Z,99018.48
2022-12-06T14:27:13.493Z,99013.05
2022-12-06T14:37:24.471Z,99003.77
2022-12-06T14:47:30.884Z,99008.45
2022-12-06T14:57:39.701Z,99003.86
2022-12-06T15:07:45.726Z,98997.86
2022-12-06T15:17:51.374Z,98999.81
2022-12-06T15:27:56.818Z,98996.41
2022-12-06T15:38:02.279Z,98988.46
2022-12-06T15:48:08.368Z,98980.95
2022-12-06T15:58:13.923Z,98975.55
2022-12-06T16:08:19.722Z,98969.17
2022-12-06T16:18:25.505Z,98964.23
2022-12-06T16:28:31.166Z,98960.04
2022-12-06T16:38:36.761Z,98957.70
2022-12-06T16:48:42.518Z,98960.05
2022-12-06T16:58:48.317Z,98958.59
2022-12-06T17:08:54.809Z,98954.31
2022-12-06T17:19:00.494Z,98949.61
2022-12-06T17:29:07.213Z,98944.70
2022-12-06T17:39:15.128Z,98955.30
2022-12-06T17:49:22.421Z,98956.05
2022-12-06T17:59:27.426Z,98951.32
2022-12-06T18:09:32.875Z,98948.40
2022-12-06T18:19:40.307Z,98941.30
2022-12-06T18:29:46.182Z,98936.32
2022-12-06T18:39:51.866Z,98935.90
2022-12-06T18:49:57.649Z,98932.49
2022-12-06T19:00:03.875Z,98932.66
2022-12-06T19:10:11.573Z,98925.27
2022-12-06T19:20:17.636Z,98925.48
2022-12-06T19:30:23.291Z,98938.05
2022-12-06T19:40:28.947Z,98931.29
2022-12-06T19:50:36.185Z,98927.64
2022-12-06T20:00:40.640Z,98921.98
2022-12-06T20:10:46.190Z,98920.13
2022-12-06T20:20:54.516Z,98913.28
2022-12-06T20:31:00.070Z,98908.77
2022-12-06T20:41:10.056Z,98893.78
2022-12-06T20:51:18.564Z,98890.48
2022-12-06T21:01:27.184Z,98889.04
2022-12-06T21:11:32.835Z,98883.76
2022-12-06T21:21:41.424Z,98880.97
2022-12-06T21:31:47.187Z,98880.11
2022-12-06T21:41:53.227Z,98874.86
2022-12-06T21:52:05.876Z,98871.55
2022-12-06T22:02:15.022Z,98869.33
2022-12-06T22:12:20.599Z,98870.40
2022-12-06T22:22:26.185Z,98873.32
2022-12-06T22:32:33.975Z,98872.63
2022-12-06T22:42:40.148Z,98871.20
2022-12-06T22:52:45.736Z,98874.92
2022-12-06T23:02:51.737Z,98867.00
2022-12-06T23:12:57.287Z,98860.77
2022-12-06T23:23:02.794Z,98851.12
2022-12-06T23:33:08.375Z,98857.07
2022-12-06T23:43:14.006Z,98855.08
2022-12-06T23:53:19.529Z,98843.33
